Time;durP1;ratioP1;P1;durP2;ratioP2;P2;SDS_P1;SDS_P2;PMS_P1;PMS_P2;Temp;Humidity;BMP_temperature;BMP_pressure;BME280_temperature;BME280_humidity;BME280_pressure;Samples;Min_cycle;Max_cycle;Signal;HPM_P1;HPM_P2
2021/03/23 00:01:14;;;;;;;5.30;2.90;;;;;;;;;;5070340;28;20376;-71
2021/03/23 00:03:42;;;;;;;4.40;3.25;;;;;;;;;;5069454;28;20372;-71
2021/03/23 00:06:09;;;;;;;3.35;2.67;;;;;;;;;;5069980;28;20858;-71
2021/03/23 00:08:36;;;;;;;6.68;3.35;;;;;;;;;;5069288;28;20383;-70
2021/03/23 00:11:22;;;;;;;5.30;3.13;;;4.40;99.90;;;;;;5070295;28;20376;-70
2021/03/23 00:13:49;;;;;;;4.55;3.08;;;;;;;;;;5069067;28;20916;-72
2021/03/23 00:16:17;;;;;;;4.80;3.40;;;;;;;;;;5070214;28;20403;-73
2021/03/23 00:18:43;;;;;;;3.50;2.92;;;;;;;;;;5072717;28;20367;-71
2021/03/23 00:21:10;;;;;;;4.38;3.80;;;;;;;;;;5073887;28;20493;-71
2021/03/23 00:23:37;;;;;;;6.43;3.33;;;;;;;;;;5072921;28;20444;-69
2021/03/23 00:26:03;;;;;;;4.47;2.90;;;;;;;;;;5073678;28;20376;-69
2021/03/23 00:28:29;;;;;;;3.97;2.72;;;;;;;;;;5073103;28;20372;-69
2021/03/23 00:30:56;;;;;;;7.97;3.90;;;;;;;;;;5073534;28;20403;-70
2021/03/23 00:33:22;;;;;;;5.10;2.88;;;;;;;;;;5072685;28;20689;-71
2021/03/23 00:35:49;;;;;;;4.72;3.00;;;;;;;;;;5073637;28;20426;-70
2021/03/23 00:38:15;;;;;;;6.90;3.15;;;;;;;;;;5073750;28;20395;-69
2021/03/23 00:40:41;;;;;;;5.38;3.47;;;;;;;;;;5072818;28;20376;-70
2021/03/23 00:43:08;;;;;;;4.93;3.70;;;;;;;;;;5073300;28;20383;-69
2021/03/23 00:45:37;;;;;;;5.35;3.90;;;;;;;;;;5072543;28;20470;-69
2021/03/23 00:48:04;;;;;;;5.65;3.60;;;;;;;;;;5072874;28;20863;-69
2021/03/23 00:50:30;;;;;;;4.55;3.42;;;;;;;;;;5072471;28;20433;-69
2021/03/23 00:52:56;;;;;;;5.03;3.10;;;;;;;;;;5073413;28;20462;-71
2021/03/23 00:55:22;;;;;;;4.53;3.15;;;;;;;;;;5072606;28;20448;-73
2021/03/23 00:57:48;;;;;;;4.75;3.10;;;;;;;;;;5073053;28;20371;-71
2021/03/23 01:00:15;;;;;;;4.10;3.00;;;;;;;;;;5073150;28;20437;-70
2021/03/23 01:02:43;;;;;;;5.30;3.22;;;;;;;;;;5072184;28;20368;-71
2021/03/23 01:05:09;;;;;;;7.60;3.20;;;;;;;;;;5073107;28;20494;-70
2021/03/23 01:07:35;;;;;;;6.68;3.80;;;;;;;;;;5070709;28;20383;-71
2021/03/23 01:10:01;;;;;;;5.90;3.75;;;;;;;;;;5072937;28;20382;-70
2021/03/23 01:12:27;;;;;;;5.70;3.33;;;;;;;;;;5072011;28;20796;-70
2021/03/23 01:14:53;;;;;;;3.65;3.00;;;;;;;;;;5072806;28;20423;-70
2021/03/23 01:17:19;;;;;;;4.82;3.80;;;;;;;;;;5072800;28;20383;-70
2021/03/23 01:19:45;;;;;;;5.07;3.20;;;;;;;;;;5071902;28;20364;-71
2021/03/23 01:22:12;;;;;;;5.13;3.55;;;;;;;;;;5072412;28;20447;-71
2021/03/23 01:24:38;;;;;;;6.32;3.15;;;;;;;;;;5071834;28;20372;-72
2021/03/23 01:27:04;;;;;;;4.55;2.88;;;;;;;;;;5072260;28;20383;-71
2021/03/23 01:29:30;;;;;;;5.50;3.95;;;;;;;;;;5071232;28;20387;-71
2021/03/23 01:31:57;;;;;;;4.22;2.88;;;;;;;;;;5072476;28;20398;-71
2021/03/23 01:34:23;;;;;;;6.28;3.20;;;;;;;;;;5071771;28;20856;-73
2021/03/23 01:36:49;;;;;;;5.38;3.00;;;;;;;;;;5072410;28;20483;-70
2021/03/23 01:39:15;;;;;;;7.97;3.20;;;;;;;;;;5072354;28;20813;-70
2021/03/23 01:41:41;;;;;;;5.07;3.30;;;;;;;;;;5071386;28;20383;-70
2021/03/23 01:44:07;;;;;;;5.18;2.80;;;;;;;;;;5072533;28;20379;-70
2021/03/23 01:46:39;;;;;;;3.47;3.17;;;;;;;;;;5071536;28;20379;-70
2021/03/23 01:49:10;;;;;;;3.60;3.20;;;;;;;;;;5072131;28;20749;-70
2021/03/23 01:51:37;;;;;;;3.30;2.90;;;;;;;;;;5071533;28;20425;-70
2021/03/23 01:54:06;;;;;;;5.15;2.88;;;;;;;;;;5071819;28;20410;-70
2021/03/23 01:56:32;;;;;;;3.58;2.97;;;;;;;;;;5071261;28;20767;-71
2021/03/23 01:59:00;;;;;;;4.35;3.58;;;;;;;;;;5071971;28;20407;-70
2021/03/23 02:01:26;;;;;;;5.80;2.80;;;;;;;;;;5071134;28;20803;-73
2021/03/23 02:03:52;;;;;;;2.90;2.60;;;;;;;;;;5070243;28;20899;-70
2021/03/23 02:06:27;;;;;;;4.97;3.40;;;;;;;;;;5071963;28;20383;-71
2021/03/23 02:08:57;;;;;;;5.30;3.00;;;;;;;;;;5071905;28;20380;-70
2021/03/23 02:11:23;;;;;;;4.20;2.33;;;;;;;;;;5071851;28;20387;-71
2021/03/23 02:13:50;;;;;;;4.68;3.10;;;;;;;;;;5071083;28;20383;-71
2021/03/23 02:16:16;;;;;;;5.00;3.00;;;;;;;;;;5071865;28;20533;-71
2021/03/23 02:18:42;;;;;;;4.55;2.92;;;;;;;;;;5070771;28;20725;-70
2021/03/23 02:21:09;;;;;;;4.82;2.58;;;;;;;;;;5070346;28;20383;-70
2021/03/23 02:23:38;;;;;;;2.93;2.57;;;;;;;;;;5070749;28;20863;-70
2021/03/23 02:26:05;;;;;;;4.77;3.10;;;;;;;;;;5071478;28;20396;-70
2021/03/23 02:28:34;;;;;;;3.17;2.33;;;;;;;;;;5070551;28;20456;-71
2021/03/23 02:31:00;;;;;;;5.03;2.53;;;;;;;;;;5071289;28;20367;-71
2021/03/23 02:33:26;;;;;;;5.20;3.05;;;;;;;;;;5070916;28;20366;-73
2021/03/23 02:35:52;;;;;;;4.50;2.60;;;;;;;;;;5070839;28;20784;-71
2021/03/23 02:38:18;;;;;;;5.28;2.60;;;;;;;;;;5071553;28;20375;-71
2021/03/23 02:40:44;;;;;;;4.80;3.00;;;;;;;;;;5069596;28;20370;-69
2021/03/23 02:43:11;;;;;;;3.60;2.80;;;;;;;;;;5070960;28;20425;-69
2021/03/23 02:45:37;;;;;;;4.65;3.00;;;;;;;;;;5069994;28;20375;-69
2021/03/23 02:48:03;;;;;;;2.70;2.50;;;;;;;;;;5069228;28;20387;-69
2021/03/23 02:50:29;;;;;;;3.80;2.67;;;;;;;;;;5070290;28;20407;-71
2021/03/23 02:52:56;;;;;;;3.20;2.50;;;;;;;;;;5070608;28;20412;-69
2021/03/23 02:55:22;;;;;;;5.37;3.20;;;;;;;;;;5070819;28;20396;-69
2021/03/23 02:57:48;;;;;;;5.97;2.60;;;;;;;;;;5069991;28;20443;-69
2021/03/23 03:00:15;;;;;;;5.57;2.90;;;;;;;;;;5070702;28;20450;-69
2021/03/23 03:02:41;;;;;;;7.17;3.23;;;;;;;;;;5070059;28;20701;-69
2021/03/23 03:05:08;;;;;;;6.25;2.97;;;;;;;;;;5070972;28;20379;-69
2021/03/23 03:07:34;;;;;;;3.50;2.40;;;;;;;;;;5069867;28;20421;-70
2021/03/23 03:10:00;;;;;;;3.92;2.50;;;;;;;;;;5069259;28;20462;-70
2021/03/23 03:12:26;;;;;;;4.65;2.33;;;;;;;;;;5070687;28;20371;-70
2021/03/23 03:14:52;;;;;;;4.13;2.88;;;;;;;;;;5070188;28;20399;-70
2021/03/23 03:17:18;;;;;;;3.45;2.65;;;;;;;;;;5070396;28;20867;-69
2021/03/23 03:19:44;;;;;;;4.50;3.42;;;;;;;;;;5069737;28;20372;-70
2021/03/23 03:22:10;;;;;;;3.30;2.40;;;;;;;;;;5070248;28;20453;-69
2021/03/23 03:24:36;;;;;;;6.00;2.70;;;;;;;;;;5069390;28;20365;-70
2021/03/23 03:27:03;;;;;;;5.30;2.50;;;;;;;;;;5070427;28;20384;-69
2021/03/23 03:29:29;;;;;;;3.42;2.55;;;;;;;;;;5070208;28;20459;-73
2021/03/23 03:31:54;;;;;;;2.97;2.63;;;;;;;;;;5069714;28;20459;-69
2021/03/23 03:34:21;;;;;;;3.85;3.25;;;;;;;;;;5070407;28;20381;-69
2021/03/23 03:36:47;;;;;;;4.63;2.87;;;;;;;;;;5069623;28;20416;-69
2021/03/23 03:39:13;;;;;;;4.38;3.22;;;;;;;;;;5070537;28;20387;-70
2021/03/23 03:41:39;;;;;;;5.45;2.75;;;;;;;;;;5069862;28;20375;-70
2021/03/23 03:44:05;;;;;;;3.47;2.80;;;;;;;;;;5070345;28;20432;-70
2021/03/23 03:46:31;;;;;;;2.75;2.50;;;;;;;;;;5068657;28;20901;-73
2021/03/23 03:48:57;;;;;;;5.13;3.33;;;;;;;;;;5070045;28;20506;-70
2021/03/23 03:51:23;;;;;;;4.35;3.10;;;;;;;;;;5071681;28;20462;-70
2021/03/23 03:53:49;;;;;;;5.72;3.15;;;;;;;;;;5072307;28;21070;-70
2021/03/23 03:56:15;;;;;;;4.00;2.90;;;;;;;;;;5074311;28;20778;-70
2021/03/23 03:58:41;;;;;;;3.67;2.70;;;;;;;;;;5073262;28;20368;-70
2021/03/23 04:01:07;;;;;;;5.95;2.60;;;;;;;;;;5073960;28;20851;-69
2021/03/23 04:03:33;;;;;;;6.43;3.00;;;;;;;;;;5073316;28;20455;-72
2021/03/23 04:06:00;;;;;;;4.78;3.25;;;;;;;;;;5074189;28;20396;-69
2021/03/23 04:08:38;;;;;;;6.90;3.70;;;;;;;;;;5074182;28;20740;-69
2021/03/23 04:11:05;;;;;;;3.60;2.70;;;;;;;;;;5073754;28;20468;-69
2021/03/23 04:13:32;;;;;;;5.00;2.50;;;;;;;;;;5073776;28;20419;-73
2021/03/23 04:15:58;;;;;;;3.72;2.33;;;;;;;;;;5073430;28;20422;-69
2021/03/23 04:18:25;;;;;;;3.10;2.80;;;;;;;;;;5073686;28;20384;-70
2021/03/23 04:20:52;;;;;;;3.78;2.72;;;;;;;;;;5072929;28;20432;-70
2021/03/23 04:23:20;;;;;;;3.65;3.35;;;;;;;;;;5073740;28;20371;-70
2021/03/23 04:25:46;;;;;;;3.45;2.58;;;;;;;;;;5072819;28;20701;-70
2021/03/23 04:28:12;;;;;;;3.92;2.90;;;;;;;;;;5073740;28;20420;-71
2021/03/23 04:30:38;;;;;;;6.63;3.22;;;;;;;;;;5072894;28;20368;-70
2021/03/23 04:33:04;;;;;;;4.07;2.53;;;;;;;;;;5073480;28;20467;-70
2021/03/23 04:35:43;;;;;;;3.55;2.70;;;;;;;;;;5073399;28;20423;-70
2021/03/23 04:38:10;;;;;;;2.90;2.60;;;;;;;;;;5073592;28;20467;-70
2021/03/23 04:40:37;;;;;;;4.22;3.08;;;;;;;;;;5072898;28;20408;-72
2021/03/23 04:43:03;;;;;;;5.68;3.45;;;;;;;;;;5073264;28;20376;-70
2021/03/23 04:45:29;;;;;;;6.53;3.10;;;;;;;;;;5073338;28;20461;-70
2021/03/23 04:47:55;;;;;;;5.50;2.60;;;;;;;;;;5072582;28;20395;-70
2021/03/23 04:50:21;;;;;;;4.68;2.85;;;;;;;;;;5072701;28;20368;-70
2021/03/23 04:52:47;;;;;;;4.07;2.70;;;;;;;;;;5072545;28;20417;-70
2021/03/23 04:55:14;;;;;;;4.25;2.97;;;;;;;;;;5065476;28;20410;-72
2021/03/23 04:57:40;;;;;;;4.15;2.70;;;;;;;;;;5070397;28;20372;-72
2021/03/23 05:00:07;;;;;;;3.70;2.58;;;;;;;;;;5071930;28;20460;-70
2021/03/23 05:02:33;;;;;;;3.90;2.75;;;;;;;;;;5071325;28;20516;-71
2021/03/23 05:04:59;;;;;;;4.47;3.27;;;;;;;;;;5069366;28;20524;-71
2021/03/23 05:07:25;;;;;;;2.92;2.40;;;;;;;;;;5072574;28;20376;-69
2021/03/23 05:09:51;;;;;;;3.55;2.60;;;;;;;;;;5071448;28;20810;-70
2021/03/23 05:12:17;;;;;;;3.20;2.20;;;;;;;;;;5073693;28;20524;-70
2021/03/23 05:14:43;;;;;;;3.75;2.92;;;;;;;;;;5069725;28;20428;-70
2021/03/23 05:17:10;;;;;;;3.67;2.55;;;;;;;;;;5071102;28;21188;-70
2021/03/23 05:19:36;;;;;;;3.33;2.30;;;;;;;;;;5071448;28;20463;-73
2021/03/23 05:22:03;;;;;;;7.05;3.03;;;;;;;;;;5072809;28;20379;-70
2021/03/23 05:24:29;;;;;;;5.95;2.80;;;;;;;;;;5069493;28;20533;-70
2021/03/23 05:26:55;;;;;;;2.80;2.35;;;;;;;;;;5074813;28;20378;-70
2021/03/23 05:29:21;;;;;;;3.83;2.08;;;;;;;;;;5070066;28;20378;-70
2021/03/23 05:31:47;;;;;;;3.78;2.47;;;;;;;;;;5069738;28;20382;-71
2021/03/23 05:34:14;;;;;;;2.43;1.83;;;;;;;;;;5072950;28;20394;-73
2021/03/23 05:36:41;;;;;;;5.22;2.78;;;;;;;;;;5068390;28;20447;-72
2021/03/23 05:39:08;;;;;;;3.35;2.30;;;;;;;;;;5069910;28;20418;-70
2021/03/23 05:42:01;;;;;;;2.95;2.05;;;;;;;;;;5070397;28;20374;-71
2021/03/23 05:44:35;;;;;;;3.03;2.40;;;;;;;;;;5036059;28;20746;-70
2021/03/23 05:47:01;;;;;;;3.45;2.33;;;;;;;;;;5051812;28;20381;-70
2021/03/23 05:49:32;;;;;;;3.83;2.30;;;;;;;;;;5049808;28;20873;-70
2021/03/23 05:52:14;;;;;;;4.32;2.35;;;;;;;;;;5050312;28;20963;-70
2021/03/23 05:55:00;;;;;;;3.88;2.70;;;;;;;;;;5050621;28;20413;-73
2021/03/23 05:57:38;;;;;;;3.60;2.60;;;;;;;;;;5051553;28;20384;-71
2021/03/23 06:00:07;;;;;;;3.60;2.57;;;;;;;;;;5051133;28;20373;-70
2021/03/23 06:02:44;;;;;;;3.58;2.80;;;;;;;;;;5051780;28;20710;-70
2021/03/23 06:05:30;;;;;;;2.80;2.40;;;;;;;;;;5051452;28;20444;-70
2021/03/23 06:08:01;;;;;;;4.43;3.35;;;;;;;;;;5050977;28;20389;-70
2021/03/23 06:10:27;;;;;;;3.17;2.30;;;;;;;;;;5051849;28;20377;-70
2021/03/23 06:13:07;;;;;;;3.90;3.00;;;;;;;;;;5051009;28;20370;-70
2021/03/23 06:15:55;;;;;;;5.43;2.90;;;4.00;99.90;;;;;;5050197;28;20591;-70
2021/03/23 06:18:45;;;;;;;3.85;2.88;;;4.00;99.90;;;;;;5051585;28;20397;-70
2021/03/23 06:21:22;;;;;;;3.25;2.50;;;;;;;;;;5051316;28;20511;-70
2021/03/23 06:23:59;;;;;;;4.87;2.77;;;;;;;;;;5051017;28;20468;-70
2021/03/23 06:26:35;;;;;;;4.32;2.70;;;;;;;;;;5051531;28;20472;-70
2021/03/23 06:29:06;;;;;;;3.70;3.10;;;;;;;;;;5050919;28;20460;-70
2021/03/23 06:31:51;;;;;;;3.50;2.95;;;;;;;;;;5056279;28;20397;-70
2021/03/23 06:34:21;;;;;;;4.50;2.92;;;4.00;99.90;;;;;;5070577;28;20419;-70
2021/03/23 06:36:49;;;;;;;4.80;3.10;;;;;;;;;;5068782;28;20858;-70
2021/03/23 06:39:15;;;;;;;4.20;2.80;;;;;;;;;;5069981;28;20864;-70
2021/03/23 06:41:52;;;;;;;4.47;2.70;;;;;;;;;;5070547;28;20876;-73
2021/03/23 06:44:23;;;;;;;3.60;2.80;;;;;;;;;;5071147;28;20867;-70
2021/03/23 06:46:50;;;;;;;3.72;2.80;;;;;;;;;;5070413;28;20380;-70
2021/03/23 06:49:17;;;;;;;4.22;3.08;;;;;;;;;;5071045;28;20367;-70
2021/03/23 06:51:57;;;;;;;2.80;2.50;;;;;;;;;;5070942;28;20376;-73
2021/03/23 06:54:39;;;;;;;2.72;2.53;;;;;;;;;;5071493;28;20380;-69
2021/03/23 06:57:14;;;;;;;3.70;2.50;;;;;;;;;;5070624;28;20627;-71
2021/03/23 06:59:52;;;;;;;3.85;2.13;;;;;;;;;;5070976;28;20384;-70
2021/03/23 07:02:27;;;;;;;4.28;2.70;;;;;;;;;;5070935;28;20386;-70
2021/03/23 07:04:53;;;;;;;2.83;2.50;;;;;;;;;;5070242;28;20419;-70
2021/03/23 07:07:21;;;;;;;4.28;2.50;;;;;;;;;;5071249;28;20375;-70
2021/03/23 07:09:48;;;;;;;3.45;2.28;;;;;;;;;;5070409;28;20372;-71
2021/03/23 07:12:15;;;;;;;2.33;1.83;;;;;;;;;;5067785;28;20382;-70
2021/03/23 07:14:46;;;;;;;3.50;2.30;;;;;;;;;;5071439;28;20410;-71
2021/03/23 07:17:12;;;;;;;3.08;2.22;;;;;;;;;;5067300;28;20375;-71
2021/03/23 07:19:53;;;;;;;2.72;2.10;;;;;;;;;;5067742;28;20376;-71
2021/03/23 07:22:51;;;;;;;4.20;2.50;;;;;;;;;;5072361;28;20395;-71
2021/03/23 07:25:35;;;;;;;2.25;1.90;;;;;;;;;;5054812;28;20396;-71
2021/03/23 07:28:20;;;;;;;2.75;2.25;;;;;;;;;;5065891;28;20740;-73
2021/03/23 07:30:55;;;;;;;3.50;2.50;;;;;;;;;;5066890;28;20491;-73
2021/03/23 07:33:57;;;;;;;2.95;2.30;;;;;;;;;;5065885;28;20914;-71
2021/03/23 07:36:26;;;;;;;3.05;2.65;;;;;;;;;;5005257;28;20440;-71
2021/03/23 07:38:53;;;;;;;2.93;2.30;;;;;;;;;;5055011;28;20971;-71
2021/03/23 07:41:24;;;;;;;6.20;2.78;;;;;;;;;;5067552;28;20423;-72
2021/03/23 07:43:53;;;;;;;3.03;2.20;;;;;;;;;;5071606;28;20374;-71
2021/03/23 07:46:26;;;;;;;2.75;2.40;;;;;;;;;;5067896;28;20384;-71
2021/03/23 07:49:29;;;;;;;3.63;2.60;;;5.80;99.90;;;;;;5066248;28;20773;-71
2021/03/23 07:52:13;;;;;;;2.67;2.43;;;;;;;;;;5062290;28;20431;-70
2021/03/23 07:54:41;;;;;;;3.50;2.05;;;;;;;;;;5080723;28;20371;-69
2021/03/23 07:57:22;;;;;;;2.60;2.00;;;;;;;;;;5067371;28;20380;-70
2021/03/23 07:59:51;;;;;;;2.77;2.40;;;;;;;;;;5066160;28;20453;-73
2021/03/23 08:02:37;;;;;;;4.05;2.55;;;;;;;;;;5069228;28;20394;-69
2021/03/23 08:05:47;;;;;;;6.07;2.90;;;6.70;99.90;;;;;;5075057;28;20399;-69
2021/03/23 08:08:16;;;;;;;3.10;2.40;;;;;;;;;;5039263;28;20512;-69
2021/03/23 08:10:42;;;;;;;3.55;2.53;;;;;;;;;;5068319;28;20409;-72
2021/03/23 08:13:17;;;;;;;5.10;2.50;;;;;;;;;;5075821;28;20459;-69
2021/03/23 08:16:03;;;;;;;3.10;2.30;;;;;;;;;;5080763;28;20440;-73
2021/03/23 08:18:29;;;;;;;3.70;2.17;;;;;;;;;;5066189;28;20466;-69
2021/03/23 08:21:01;;;;;;;3.90;2.55;;;;;;;;;;5066188;28;20455;-70
2021/03/23 08:23:32;;;;;;;3.50;2.70;;;;;;;;;;5067161;28;20375;-70
2021/03/23 08:26:01;;;;;;;3.67;2.70;;;;;;;;;;5074533;28;20382;-69
2021/03/23 08:28:38;;;;;;;3.60;2.70;;;;;;;;;;5066960;28;20387;-70
2021/03/23 08:31:04;;;;;;;5.30;2.80;;;;;;;;;;5063908;28;20400;-69
2021/03/23 08:33:42;;;;;;;4.40;2.60;;;;;;;;;;5068645;28;20463;-69
2021/03/23 08:36:08;;;;;;;3.55;2.50;;;;;;;;;;5075162;28;20448;-69
2021/03/23 08:38:43;;;;;;;2.80;2.33;;;;;;;;;;5077750;28;20470;-70
2021/03/23 08:41:32;;;;;;;4.40;3.03;;;;;;;;;;5069109;28;20475;-70
2021/03/23 08:43:59;;;;;;;3.40;2.63;;;;;;;;;;5070197;28;20384;-71
2021/03/23 08:46:29;;;;;;;4.50;2.80;;;8.50;99.90;;;;;;5079825;28;20366;-69
2021/03/23 08:49:00;;;;;;;4.07;2.97;;;;;;;;;;5073098;28;20411;-69
2021/03/23 08:51:27;;;;;;;4.30;2.20;;;;;;;;;;5075707;28;20436;-69
2021/03/23 08:53:54;;;;;;;4.00;1.80;;;9.40;99.90;;;;;;5070282;28;20372;-69
2021/03/23 08:56:39;;;;;;;3.33;2.10;;;;;;;;;;5072328;28;20411;-69
2021/03/23 08:59:05;;;;;;;3.83;2.00;;;;;;;;;;5072672;28;20527;-70
2021/03/23 09:01:36;;;;;;;2.47;1.50;;;;;;;;;;5075429;28;20458;-70
2021/03/23 09:04:11;;;;;;;3.42;1.90;;;;;;;;;;5071362;28;20745;-69
2021/03/23 09:06:53;;;;;;;2.25;2.05;;;9.70;99.90;;;;;;5069597;28;20388;-70
2021/03/23 09:09:29;;;;;;;1.77;1.67;;;;;;;;;;5078036;28;20398;-68
2021/03/23 09:12:07;;;;;;;4.55;2.13;;;;;;;;;;5072312;28;20416;-71
2021/03/23 09:15:08;;;;;;;2.25;1.90;;;9.70;99.90;;;;;;5079030;28;20574;-71
2021/03/23 09:17:52;;;;;;;4.40;1.90;;;;;;;;;;5069151;28;20801;-69
2021/03/23 09:20:35;;;;;;;2.80;1.90;;;;;;;;;;5077401;28;20396;-69
2021/03/23 09:23:19;;;;;;;3.95;2.40;;;;;;;;;;5065318;28;20886;-69
2021/03/23 09:25:46;;;;;;;3.50;2.00;;;;;;;;;;5069196;28;20380;-70
2021/03/23 09:28:33;;;;;;;3.40;2.20;;;;;;;;;;5066099;28;20383;-69
2021/03/23 09:31:00;;;;;;;4.20;2.50;;;;;;;;;;5068865;28;20489;-70
2021/03/23 09:33:26;;;;;;;2.55;1.77;;;;;;;;;;5081523;28;20726;-69
2021/03/23 09:36:11;;;;;;;1.73;1.55;;;;;;;;;;5071941;28;20431;-69
2021/03/23 09:38:44;;;;;;;2.25;1.38;;;;;;;;;;5070079;28;20384;-69
2021/03/23 09:41:27;;;;;;;1.90;1.20;;;10.30;99.90;;;;;;5070093;28;20406;-69
2021/03/23 09:43:59;;;;;;;2.17;1.55;;;10.60;99.90;;;;;;5070270;28;20388;-68
2021/03/23 09:46:44;;;;;;;3.17;1.70;;;;;;;;;;5092853;28;20435;-69
2021/03/23 09:49:27;;;;;;;2.03;1.15;;;10.50;97.20;;;;;;5092628;28;20383;-69
2021/03/23 09:51:56;;;;;;;4.70;1.50;;;;;;;;;;5091936;28;20773;-69
2021/03/23 09:54:28;;;;;;;4.40;2.00;;;;;;;;;;5087933;28;20482;-69
2021/03/23 09:57:15;;;;;;;1.40;1.30;;;10.80;99.90;;;;;;5077168;28;20403;-68
2021/03/23 09:59:45;;;;;;;2.10;1.40;;;;;;;;;;5057729;28;20423;-69
2021/03/23 10:02:14;;;;;;;3.00;1.75;;;;;;;;;;5072147;28;20720;-69
2021/03/23 10:04:41;;;;;;;2.83;1.70;;;;;;;;;;5072226;28;20413;-68
2021/03/23 10:07:11;;;;;;;1.70;1.60;;;11.30;99.80;;;;;;5071285;28;20823;-68
2021/03/23 10:09:38;;;;;;;2.90;1.80;;;;;;;;;;5072312;28;20379;-69
2021/03/23 10:12:05;;;;;;;1.90;1.50;;;;;;;;;;5071315;28;20789;-69
2021/03/23 10:14:33;;;;;;;2.92;1.33;;;;;;;;;;5072102;28;20372;-70
2021/03/23 10:17:05;;;;;;;1.60;1.33;;;11.50;99.50;;;;;;5071255;28;20433;-69
2021/03/23 10:19:43;;;;;;;2.00;1.70;;;11.30;99.40;;;;;;5072223;28;20383;-70
2021/03/23 10:22:31;;;;;;;2.00;1.80;;;11.40;99.20;;;;;;5071332;28;20391;-70
2021/03/23 10:25:00;;;;;;;1.60;1.50;;;11.60;99.20;;;;;;5070342;28;20945;-70
2021/03/23 10:27:32;;;;;;;3.10;1.55;;;11.20;99.60;;;;;;5071760;28;20379;-71
2021/03/23 10:30:04;;;;;;;1.73;1.50;;;;;;;;;;5070857;28;20383;-71
2021/03/23 10:32:42;;;;;;;1.70;1.30;;;12.10;99.20;;;;;;5071637;28;20414;-71
2021/03/23 10:35:11;;;;;;;2.97;1.70;;;;;;;;;;5070978;28;20443;-70
2021/03/23 10:37:37;;;;;;;1.90;1.30;;;;;;;;;;5071127;28;20439;-71
2021/03/23 10:40:23;;;;;;;1.25;1.15;;;11.30;98.50;;;;;;5070615;28;20386;-70
2021/03/23 10:42:52;;;;;;;1.58;1.10;;;;;;;;;;5069585;28;20382;-74
2021/03/23 10:45:18;;;;;;;1.80;1.50;;;;;;;;;;5068947;28;20378;-70
2021/03/23 10:47:46;;;;;;;2.17;1.60;;;;;;;;;;5070582;28;20744;-71
2021/03/23 10:50:21;;;;;;;1.97;1.80;;;11.50;99.40;;;;;;5070637;28;20372;-70
2021/03/23 10:52:48;;;;;;;3.28;1.83;;;;;;;;;;5071284;28;20380;-73
2021/03/23 10:55:32;;;;;;;2.10;1.30;;;;;;;;;;5071105;28;20472;-71
2021/03/23 10:58:15;;;;;;;2.10;1.65;;;;;;;;;;5070601;28;20360;-69
2021/03/23 11:00:41;;;;;;;1.77;1.60;;;;;;;;;;5070810;28;20368;-69
2021/03/23 11:03:29;;;;;;;2.63;1.40;;;;;;;;;;5070569;28;21027;-68
2021/03/23 11:05:55;;;;;;;2.20;1.50;;;11.50;97.60;;;;;;5069870;28;20395;-68
2021/03/23 11:08:21;;;;;;;1.92;1.50;;;;;;;;;;5070326;28;20474;-69
2021/03/23 11:10:48;;;;;;;2.35;1.52;;;;;;;;;;5072480;28;20388;-71
2021/03/23 11:13:15;;;;;;;1.90;1.38;;;;;;;;;;5072059;28;20437;-69
2021/03/23 11:15:47;;;;;;;2.20;1.60;;;;;;;;;;5072755;28;20411;-69
2021/03/23 11:18:36;;;;;;;2.58;1.45;;;;;;;;;;5069235;28;20737;-69
2021/03/23 11:21:09;;;;;;;2.13;1.40;;;;;;;;;;5069421;28;20878;-68
2021/03/23 11:23:44;;;;;;;2.17;1.27;;;11.90;98.10;;;;;;5071069;28;20406;-69
2021/03/23 11:26:28;;;;;;;1.52;1.42;;;12.30;99.10;;;;;;5077266;28;20469;-69
2021/03/23 11:28:59;;;;;;;2.58;1.40;;;;;;;;;;5067996;28;20446;-70
2021/03/23 11:31:29;;;;;;;2.30;1.70;;;;;;;;;;5069356;28;20375;-70
2021/03/23 11:33:56;;;;;;;6.40;2.00;;;;;;;;;;5067836;28;20469;-69
2021/03/23 11:36:32;;;;;;;1.95;1.50;;;;;;;;;;5069675;28;20428;-69
2021/03/23 11:39:13;;;;;;;2.47;1.50;;;14.40;97.60;;;;;;5063020;28;20383;-70
2021/03/23 11:41:45;;;;;;;3.97;1.92;;;13.80;97.00;;;;;;5067803;28;20459;-70
2021/03/23 11:44:32;;;;;;;3.30;1.70;;;13.40;98.00;;;;;;5069489;28;20404;-69
2021/03/23 11:47:19;;;;;;;1.75;1.65;;;;;;;;;;5069465;28;20376;-70
2021/03/23 11:49:53;;;;;;;1.95;1.60;;;;;;;;;;5068909;28;20426;-72
2021/03/23 11:52:22;;;;;;;1.90;1.42;;;;;;;;;;5070208;28;20435;-72
2021/03/23 11:54:58;;;;;;;1.55;1.45;;;;;;;;;;5069374;28;20455;-72
2021/03/23 11:57:27;;;;;;;2.08;1.60;;;;;;;;;;5069611;28;20483;-71
2021/03/23 12:00:01;;;;;;;2.80;1.30;;;;;;;;;;5069143;28;20386;-74
2021/03/23 12:02:30;;;;;;;1.90;1.50;;;;;;;;;;5070201;28;20370;-71
2021/03/23 12:04:56;;;;;;;1.90;1.70;;;;;;;;;;5069204;28;20848;-70
2021/03/23 12:07:38;;;;;;;1.65;1.40;;;;;;;;;;5070029;28;20387;-71
2021/03/23 12:10:27;;;;;;;2.10;1.50;;;;;;;;;;5069720;28;20717;-71
2021/03/23 12:13:12;;;;;;;2.00;1.75;;;;;;;;;;5071966;28;20368;-74
2021/03/23 12:16:06;;;;;;;3.20;1.75;;;16.30;91.70;;;;;;5074149;28;20403;-71
2021/03/23 12:18:34;;;;;;;2.55;1.67;;;;;;;;;;5074496;28;20744;-69
2021/03/23 12:21:00;;;;;;;1.52;1.30;;;;;;;;;;5072677;28;20391;-70
2021/03/23 12:23:32;;;;;;;2.00;1.40;;;;;;;;;;5074145;28;20368;-70
2021/03/23 12:26:01;;;;;;;2.35;2.05;;;;;;;;;;5073083;28;20381;-70
2021/03/23 12:28:49;;;;;;;2.10;1.70;;;16.60;91.00;;;;;;5073739;28;20860;-70
2021/03/23 12:31:15;;;;;;;2.70;1.70;;;;;;;;;;5072594;28;20415;-70
2021/03/23 12:34:01;;;;;;;4.10;2.83;;;;;;;;;;5073876;28;20466;-70
2021/03/23 12:36:28;;;;;;;5.30;2.97;;;;;;;;;;5073789;28;20462;-70
2021/03/23 12:39:06;;;;;;;4.20;3.80;;;;;;;;;;5073607;28;20371;-74
2021/03/23 12:41:46;;;;;;;4.80;3.50;;;14.60;95.50;;;;;;5074040;28;20364;-69
2021/03/23 12:44:12;;;;;;;4.17;3.20;;;14.30;93.10;;;;;;5072940;28;20445;-70
2021/03/23 12:46:38;;;;;;;4.55;3.47;;;;;;;;;;5073231;28;20898;-70
2021/03/23 12:49:08;;;;;;;4.22;2.90;;;;;;;;;;5074089;28;20384;-70
2021/03/23 12:51:42;;;;;;;4.20;3.28;;;;;;;;;;5076185;28;20376;-70
2021/03/23 12:54:18;;;;;;;4.50;3.20;;;;;;;;;;5075786;28;20483;-72
2021/03/23 12:56:44;;;;;;;5.07;3.20;;;;;;;;;;5073207;28;20836;-71
2021/03/23 12:59:52;;;;;;;;;;;;;;;;;;;;;
2021/03/23 13:05:29;;;;;;;3.40;2.65;;;;;;;;;;5043928;28;20781;-70
2021/03/23 13:08:05;;;;;;;5.57;3.28;;;;;;;;;;5073351;28;20384;-73
2021/03/23 13:10:33;;;;;;;5.37;3.30;;;;;;;;;;5072124;28;20514;-71
2021/03/23 13:13:00;;;;;;;6.05;3.08;;;;;;;;;;5072417;28;20512;-75
2021/03/23 13:15:27;;;;;;;6.10;3.10;;;;;;;;;;5072986;28;20400;-72
2021/03/23 13:17:53;;;;;;;5.18;2.92;;;;;;;;;;5073494;28;20376;-70
2021/03/23 13:20:20;;;;;;;5.38;3.40;;;;;;;;;;5072485;28;20387;-71
2021/03/23 13:22:53;;;;;;;5.28;3.45;;;;;;;;;;5073324;28;20371;-72
2021/03/23 13:25:23;;;;;;;3.72;2.70;;;;;;;;;;5071626;28;20921;-71
2021/03/23 13:27:51;;;;;;;4.97;2.92;;;;;;;;;;5072903;28;20380;-70
2021/03/23 13:30:24;;;;;;;4.70;3.17;;;;;;;;;;5071938;28;20368;-69
2021/03/23 13:32:51;;;;;;;5.18;3.22;;;;;;;;;;5070302;28;20395;-70
2021/03/23 13:35:17;;;;;;;6.35;3.28;;;13.20;96.70;;;;;;5070086;28;20434;-73
2021/03/23 13:37:44;;;;;;;5.63;2.90;;;;;;;;;;5071563;28;20445;-70
2021/03/23 13:40:24;;;;;;;3.45;2.80;;;;;;;;;;5060031;28;20416;-73
2021/03/23 13:42:50;;;;;;;4.40;2.80;;;;;;;;;;5069748;28;20383;-71
2021/03/23 13:45:25;;;;;;;5.13;3.15;;;;;;;;;;5071403;28;21245;-70
2021/03/23 13:47:52;;;;;;;4.28;3.05;;;;;;;;;;5072215;28;20444;-71
2021/03/23 13:50:23;;;;;;;4.55;2.95;;;;;;;;;;5071528;28;20429;-70
2021/03/23 13:52:56;;;;;;;4.43;3.10;;;11.80;97.10;;;;;;5072287;28;20380;-70
2021/03/23 13:55:22;;;;;;;5.22;2.80;;;;;;;;;;5068134;28;20437;-72
2021/03/23 13:57:49;;;;;;;4.93;2.60;;;;;;;;;;5082454;28;20823;-71
2021/03/23 14:00:19;;;;;;;4.20;3.00;;;;;;;;;;5075574;28;20396;-71
2021/03/23 14:02:45;;;;;;;4.00;2.78;;;;;;;;;;5070798;28;20770;-71
2021/03/23 14:05:12;;;;;;;5.78;2.72;;;;;;;;;;5071164;28;20390;-71
2021/03/23 14:07:42;;;;;;;4.80;2.67;;;12.20;99.40;;;;;;5072276;28;20866;-71
2021/03/23 14:10:09;;;;;;;4.82;3.17;;;;;;;;;;5069870;28;20399;-71
2021/03/23 14:12:35;;;;;;;4.75;3.20;;;;;;;;;;5070873;28;20492;-70
2021/03/23 14:15:01;;;;;;;4.03;2.67;;;;;;;;;;5071477;28;20428;-74
2021/03/23 14:17:29;;;;;;;4.63;3.10;;;;;;;;;;5071784;28;20372;-70
2021/03/23 14:19:56;;;;;;;3.63;3.00;;;;;;;;;;5070883;28;20891;-71
2021/03/23 14:22:26;;;;;;;3.30;2.73;;;;;;;;;;5070891;28;20380;-71
2021/03/23 14:24:52;;;;;;;4.10;2.50;;;;;;;;;;5072159;28;20748;-70
2021/03/23 14:27:19;;;;;;;6.60;2.60;;;;;;;;;;5071140;28;20487;-69
2021/03/23 14:29:45;;;;;;;4.93;3.08;;;;;;;;;;5071797;28;20400;-70
2021/03/23 14:32:11;;;;;;;3.65;2.78;;;;;;;;;;5070839;28;20437;-71
2021/03/23 14:34:37;;;;;;;4.00;2.80;;;;;;;;;;5071642;28;20383;-71
2021/03/23 14:37:03;;;;;;;5.10;3.33;;;;;;;;;;5069935;28;20427;-74
2021/03/23 14:39:35;;;;;;;3.58;2.60;;;;;;;;;;5071488;28;20497;-71
2021/03/23 14:42:02;;;;;;;6.70;2.95;;;;;;;;;;5071134;28;20379;-73
2021/03/23 14:44:28;;;;;;;5.88;3.20;;;;;;;;;;5071446;28;20364;-71
2021/03/23 14:46:54;;;;;;;3.63;2.67;;;;;;;;;;5071451;28;20392;-71
2021/03/23 14:49:20;;;;;;;5.20;2.97;;;;;;;;;;5070727;28;20375;-71
2021/03/23 14:51:47;;;;;;;3.75;2.63;;;;;;;;;;5071184;28;20368;-70
2021/03/23 14:54:15;;;;;;;3.72;2.70;;;;;;;;;;5070558;28;20487;-71
2021/03/23 14:56:41;;;;;;;3.28;2.67;;;;;;;;;;5071231;28;20403;-72